Time;durP1;ratioP1;P1;durP2;ratioP2;P2;SDS_P1;SDS_P2;PMS_P1;PMS_P2;Temp;Humidity;BMP_temperature;BMP_pressure;BME280_temperature;BME280_humidity;BME280_pressure;Samples;Min_cycle;Max_cycle;Signal;HPM_P1;HPM_P2
2023/05/31 00:02:18;;;;;;;6.28;3.50;;;;;;;13.92;92.41;102461.72;5037360;28;20088;-61
2023/05/31 00:04:46;;;;;;;9.27;3.70;;;;;;;13.93;92.59;102452.41;5052474;28;20084;-61
2023/05/31 00:07:14;;;;;;;4.63;3.15;;;;;;;13.89;93.11;102456.72;5005616;28;20050;-61
2023/05/31 00:09:42;;;;;;;6.95;3.65;;;;;;;13.89;93.13;102457.56;5031115;28;20050;-61
2023/05/31 00:12:10;;;;;;;7.45;3.65;;;;;;;13.87;93.75;102459.72;5036327;28;20124;-62
2023/05/31 00:14:37;;;;;;;6.07;3.72;;;;;;;13.92;93.53;102461.72;5035568;28;20099;-61
2023/05/31 00:17:06;;;;;;;4.68;3.35;;;;;;;13.83;93.75;102464.06;5018653;28;20077;-62
2023/05/31 00:19:53;;;;;;;5.57;3.70;;;;;;;13.77;94.63;102454.91;5036134;28;20059;-62
2023/05/31 00:22:21;;;;;;;5.80;3.70;;;;;;;13.72;94.79;102462.22;5035859;28;20472;-63
2023/05/31 00:24:49;;;;;;;6.18;3.40;;;;;;;13.59;96.21;102457.91;5036962;28;20049;-63
2023/05/31 00:27:16;;;;;;;6.53;3.92;;;;;;;13.59;96.51;102457.91;5035325;28;20119;-63
2023/05/31 00:29:44;;;;;;;6.38;3.58;;;;;;;13.57;96.15;102455.41;5020730;28;20041;-58
2023/05/31 00:32:12;;;;;;;6.75;4.13;;;;;;;13.52;96.96;102451.75;5032071;28;20502;-61
2023/05/31 00:34:40;;;;;;;8.63;3.60;;;;;;;13.54;97.03;102461.38;5016184;28;20050;-61
2023/05/31 00:37:07;;;;;;;8.25;3.92;;;;;;;13.58;96.52;102448.84;5017893;28;20103;-62
2023/05/31 00:39:35;;;;;;;6.88;3.80;;;;;;;13.59;96.81;102453.25;5024845;28;20042;-65
2023/05/31 00:42:03;;;;;;;6.53;3.67;;;;;;;13.60;96.65;102443.94;5051889;28;20056;-64
2023/05/31 00:44:31;;;;;;;7.65;3.60;;;;;;;13.53;97.45;102448.75;5065495;28;20057;-60
2023/05/31 00:46:58;;;;;;;6.35;3.47;;;;;;;13.48;97.94;102458.81;5064042;28;20050;-61
2023/05/31 00:49:26;;;;;;;7.05;3.97;;;;;;;13.51;98.02;102463.78;5032896;28;20103;-63
2023/05/31 00:51:54;;;;;;;6.18;3.85;;;;;;;13.41;98.54;102461.69;5027297;28;20091;-61
2023/05/31 00:54:23;;;;;;;6.32;3.88;;;;;;;13.39;98.90;102464.66;5052887;28;20049;-62
2023/05/31 00:56:51;;;;;;;4.60;3.33;;;;;;;13.39;99.17;102463.84;5047475;28;20081;-61
2023/05/31 00:59:19;;;;;;;6.88;4.05;;;;;;;13.38;98.81;102457.53;5052186;28;20046;-60
2023/05/31 01:01:47;;;;;;;8.20;4.20;;;;;;;13.40;98.91;102463.59;5036162;28;20120;-61
2023/05/31 01:04:16;;;;;;;7.53;4.50;;;;;;;13.39;98.80;102461.09;5036259;28;20644;-61
2023/05/31 01:06:46;;;;;;;8.52;3.78;;;;;;;13.32;99.46;102465.91;5014580;28;20046;-61
2023/05/31 01:09:15;;;;;;;5.75;3.75;;;;;;;13.32;100.00;102463.16;5031392;28;20509;-61
2023/05/31 01:11:43;;;;;;;6.57;3.97;;;;;;;13.33;99.89;102462.09;5031767;28;20107;-64
2023/05/31 01:14:20;;;;;;;8.50;4.38;;;;;;;13.31;100.00;102462.34;5033354;28;20049;-62
2023/05/31 01:16:52;;;;;;;6.22;3.40;;;;;;;13.21;100.00;102462.94;5014351;28;20104;-62
2023/05/31 01:19:40;;;;;;;6.35;3.88;;;;;;;13.22;100.00;102459.13;5014712;28;20054;-62
2023/05/31 01:22:32;;;;;;;7.93;3.53;;;;;;;13.31;100.00;102461.50;5014771;28;20053;-61
2023/05/31 01:25:29;;;;;;;5.90;3.80;;;;;;;13.27;100.00;102465.78;5018895;28;20046;-64
2023/05/31 01:27:59;;;;;;;6.30;3.95;;;;;;;13.22;100.00;102459.13;5016738;28;20116;-63
2023/05/31 01:30:29;;;;;;;6.85;4.20;;;;;;;13.12;100.00;102458.94;4981728;28;20060;-61
2023/05/31 01:32:58;;;;;;;7.18;4.60;;;;;;;13.15;100.00;102463.09;5015662;28;20131;-62
2023/05/31 01:35:29;;;;;;;7.47;4.25;;;;;;;13.18;100.00;102457.97;5012196;28;20042;-61
2023/05/31 01:37:56;;;;;;;6.45;4.22;;;;;;;13.18;100.00;102457.13;5030277;28;20049;-64
2023/05/31 01:40:26;;;;;;;7.60;4.05;;;;;;;13.24;100.00;102455.34;5035054;28;20478;-63
2023/05/31 01:42:54;;;;;;;7.95;4.20;;;;;;;13.18;100.00;102463.44;5017147;28;20239;-62
2023/05/31 01:45:23;;;;;;;9.57;4.72;;;;;;;13.19;100.00;102464.28;5032059;28;20052;-61
2023/05/31 01:47:58;;;;;;;8.80;3.97;;;;;;;13.17;100.00;102461.78;5033582;28;20045;-61
2023/05/31 01:50:26;;;;;;;6.55;3.70;;;;;;;13.19;100.00;102453.31;5035018;28;20080;-61
2023/05/31 01:52:54;;;;;;;8.88;4.75;;;;;;;13.14;100.00;102451.31;5017622;28;20053;-62
2023/05/31 01:55:22;;;;;;;7.35;4.43;;;;;;;13.05;100.00;102455.53;5016865;28;20057;-61
2023/05/31 01:57:51;;;;;;;6.38;3.88;;;;;;;12.99;100.00;102453.78;5050282;28;20060;-61
2023/05/31 02:00:19;;;;;;;7.72;4.70;;;;;;;12.94;100.00;102449.03;5017010;28;20041;-61
2023/05/31 02:02:51;;;;;;;8.75;4.82;;;;;;;12.95;100.00;102450.69;5033698;28;20045;-62
2023/05/31 02:05:18;;;;;;;7.88;4.60;;;;;;;12.89;100.00;102448.94;5027295;28;20116;-62
2023/05/31 02:07:47;;;;;;;7.95;4.63;;;;;;;12.87;100.00;102442.03;5036962;28;20050;-62
2023/05/31 02:10:16;;;;;;;9.05;5.20;;;;;;;12.90;100.00;102445.13;5034002;28;20049;-62
2023/05/31 02:12:44;;;;;;;8.88;4.88;;;;;;;12.92;100.00;102436.69;5049772;28;20079;-62
2023/05/31 02:15:12;;;;;;;9.20;4.30;;;;;;;12.91;100.00;102440.47;5019629;28;20046;-62
2023/05/31 02:17:44;;;;;;;8.90;4.68;;;;;;;12.85;100.00;102438.72;5033784;28;20049;-62
2023/05/31 02:20:16;;;;;;;7.78;4.65;;;;;;;12.77;100.00;102440.78;5033395;28;20060;-61
2023/05/31 02:22:45;;;;;;;6.93;4.10;;;;;;;12.72;100.00;102448.88;5017489;28;20103;-60
2023/05/31 02:25:13;;;;;;;8.93;4.93;;;;;;;12.71;100.00;102441.72;5039400;28;20053;-61
2023/05/31 02:27:42;;;;;;;8.10;4.70;;;;;;;12.79;100.00;102435.91;5033435;28;20149;-62
2023/05/31 02:30:10;;;;;;;9.65;5.13;;;;;;;12.80;100.00;102431.25;5033444;28;20049;-64
2023/05/31 02:32:39;;;;;;;9.60;5.22;;;;;;;12.76;100.00;102444.56;5032973;28;20080;-61
2023/05/31 02:35:09;;;;;;;9.70;5.47;;;;;;;12.72;100.00;102437.09;5033157;28;20049;-63
2023/05/31 02:37:38;;;;;;;7.82;4.45;;;;;;;12.69;100.00;102443.88;5032830;28;20107;-61
2023/05/31 02:40:08;;;;;;;7.70;5.18;;;;;;;12.68;100.00;102431.28;5016476;28;20068;-61
2023/05/31 02:42:40;;;;;;;10.85;4.93;;;;;;;12.69;100.00;102443.88;5033086;28;20033;-61
2023/05/31 02:45:09;;;;;;;9.63;5.03;;;;;;;12.67;100.00;102435.06;5001957;28;20062;-61
2023/05/31 02:47:38;;;;;;;9.80;5.05;;;;;;;12.72;100.00;102437.09;5014885;28;20103;-62
2023/05/31 02:50:07;;;;;;;9.48;5.50;;;;;;;12.67;100.00;102434.25;5023895;28;20050;-62
2023/05/31 02:52:38;;;;;;;10.68;6.10;;;;;;;12.66;100.00;102432.59;5029323;28;20054;-62
2023/05/31 02:55:21;;;;;;;9.52;5.70;;;;;;;12.57;100.00;102429.41;5055223;28;20044;-62
2023/05/31 02:58:21;;;;;;;9.50;5.28;;;;;;;12.48;100.00;102434.44;5017287;28;20061;-61
2023/05/31 03:01:07;;;;;;;8.05;5.18;;;;;;;12.50;100.00;102434.19;5021963;28;20050;-62
2023/05/31 03:03:43;;;;;;;10.33;6.30;;;;;;;12.54;100.00;102429.91;5025537;28;20049;-62
2023/05/31 03:06:21;;;;;;;11.70;5.53;;;;;;;12.51;100.00;102433.13;5039808;28;20776;-62
2023/05/31 03:08:49;;;;;;;8.65;5.75;;;;;;;12.51;100.00;102431.22;5039778;28;20569;-61
2023/05/31 03:11:17;;;;;;;11.05;5.72;;;;;;;12.41;100.00;102435.63;5016095;28;20056;-61
2023/05/31 03:13:45;;;;;;;9.65;5.40;;;;;;;12.39;100.00;102437.75;5037434;28;20048;-63
2023/05/31 03:16:14;;;;;;;8.77;5.30;;;;;;;12.37;100.00;102435.28;5042552;28;20422;-60
2023/05/31 03:18:44;;;;;;;12.07;6.13;;;;;;;12.39;100.00;102437.75;5016708;28;20056;-60
2023/05/31 03:21:12;;;;;;;11.30;6.15;;;;;;;12.40;100.00;102433.97;5034282;28;20049;-59
2023/05/31 03:23:40;;;;;;;9.60;5.50;;;;;;;12.39;100.00;102437.75;5030941;28;20103;-65
2023/05/31 03:26:10;;;;;;;8.82;5.75;;;;;;;12.45;100.00;102436.81;5016545;28;20048;-61
2023/05/31 03:28:37;;;;;;;9.63;5.88;;;;;;;12.42;100.00;102437.31;5016258;28;20045;-62
2023/05/31 03:31:05;;;;;;;11.80;6.28;;;;;;;12.34;100.00;102441.25;5033931;28;20149;-62
2023/05/31 03:33:35;;;;;;;10.60;6.57;;;;;;;12.28;100.00;102432.06;5024927;28;20045;-62
2023/05/31 03:36:04;;;;;;;12.50;7.63;;;;;;;12.25;100.00;102432.56;5033438;28;20499;-64
2023/05/31 03:38:32;;;;;;;9.25;6.22;;;;;;;12.32;100.00;102432.44;5012448;28;20049;-61
2023/05/31 03:41:00;;;;;;;8.88;6.20;;;;;;;12.35;100.00;102427.31;5024159;28;20076;-64
2023/05/31 03:43:28;;;;;;;10.38;7.10;;;;;;;12.37;100.00;102429.81;5030132;28;20034;-61
2023/05/31 03:46:00;;;;;;;9.20;5.95;;;;;;;12.46;100.00;102427.53;5015915;28;20073;-61
2023/05/31 03:48:28;;;;;;;11.50;7.03;;;;;;;12.49;100.00;102427.06;5033278;28;20383;-62
2023/05/31 03:50:57;;;;;;;10.27;6.35;;;;;;;12.39;100.00;102418.63;5033660;28;20049;-63
2023/05/31 03:53:25;;;;;;;10.15;6.35;;;;;;;12.34;100.00;102425.66;5039880;28;20143;-62
2023/05/31 03:55:53;;;;;;;9.75;5.93;;;;;;;12.31;100.00;102423.41;5033045;28;20049;-62
2023/05/31 03:58:22;;;;;;;12.40;8.05;;;;;;;12.35;100.00;102427.31;5035756;28;20072;-60
2023/05/31 04:00:49;;;;;;;9.75;6.82;;;;;;;12.29;100.00;102431.03;5035506;28;20053;-64
2023/05/31 04:03:17;;;;;;;11.80;6.68;;;;;;;12.23;100.00;102422.94;5032818;28;20050;-63
2023/05/31 04:05:46;;;;;;;11.35;7.43;;;;;;;12.21;100.00;102425.09;5022835;28;20045;-61
2023/05/31 04:08:13;;;;;;;11.40;7.10;;;;;;;12.18;100.00;102425.56;5022671;28;20057;-62
2023/05/31 04:10:41;;;;;;;10.77;7.18;;;;;;;12.18;100.00;102425.56;5046054;28;20045;-62
2023/05/31 04:13:09;;;;;;;11.00;6.68;;;;;;;12.26;100.00;102423.28;5036087;28;20050;-61
2023/05/31 04:15:37;;;;;;;10.65;7.07;;;;;;;12.30;100.00;102429.94;5035503;28;20071;-61
2023/05/31 04:18:06;;;;;;;11.23;7.30;;;;;;;12.40;100.00;102428.50;5018796;28;20050;-63
2023/05/31 04:20:34;;;;;;;12.98;7.90;;;;;;;12.39;100.00;102432.28;5034803;28;20053;-62
2023/05/31 04:23:01;;;;;;;10.93;7.72;;;;;;;12.36;100.00;102428.13;5029906;28;20053;-62
2023/05/31 04:25:30;;;;;;;9.73;6.80;;;;;;;12.34;100.00;102428.41;5035290;28;20053;-63
2023/05/31 04:27:59;;;;;;;12.98;7.90;;;;;;;12.35;100.00;102421.03;5034191;28;20103;-64
2023/05/31 04:30:27;;;;;;;14.40;8.68;;;;;;;12.41;100.00;102430.16;5015573;28;20057;-64
2023/05/31 04:32:57;;;;;;;11.77;7.95;;;;;;;12.39;100.00;102427.69;5024533;28;20054;-63
2023/05/31 04:35:28;;;;;;;14.80;9.18;;;;;;;12.43;100.00;102428.84;4999123;28;20052;-61
2023/05/31 04:37:59;;;;;;;12.25;7.97;;;;;;;12.40;100.00;102429.31;5015122;28;20046;-64
2023/05/31 04:40:31;;;;;;;13.90;8.38;;;;;;;12.44;100.00;102432.44;5045679;28;20046;-64
2023/05/31 04:43:00;;;;;;;13.85;8.38;;;;;;;12.49;100.00;102435.25;5050062;28;20041;-63
2023/05/31 04:45:43;;;;;;;15.05;8.98;;;;;;;12.48;100.00;102439.06;4786977;28;10001200;-65
2023/05/31 04:48:12;;;;;;;15.82;8.98;;;;;;;12.49;100.00;102438.00;5030573;28;20250;-63
2023/05/31 04:50:40;;;;;;;12.93;8.50;;;;;;;12.43;100.00;102449.88;5037291;28;20067;-64
2023/05/31 04:53:08;;;;;;;14.82;8.88;;;;;;;12.40;100.00;102444.91;5007128;28;20406;-65
2023/05/31 04:55:35;;;;;;;15.32;9.88;;;;;;;12.36;100.00;102450.88;5027877;28;20073;-64
2023/05/31 04:58:08;;;;;;;14.95;9.27;;;;;;;12.32;100.00;102438.72;5028044;28;20049;-65
2023/05/31 05:00:37;;;;;;;14.70;9.30;;;;;;;12.27;100.00;102435.06;5026951;28;20073;-64
2023/05/31 05:03:21;;;;;;;13.38;8.85;;;;;;;12.35;100.00;102432.78;4674976;28;10000001;-66
2023/05/31 05:05:51;;;;;;;15.38;9.95;;;;;;;12.36;100.00;102433.59;5042131;28;20789;-63
2023/05/31 05:08:19;;;;;;;17.38;9.70;;;;;;;12.40;100.00;102439.44;5001445;28;20111;-63
2023/05/31 05:10:48;;;;;;;15.05;10.07;;;;;;;12.41;100.00;102443.81;5030841;28;20425;-63
2023/05/31 05:13:17;;;;;;;13.35;9.35;;;;;;;12.42;100.00;102437.31;4996732;28;20402;-62
2023/05/31 05:15:47;;;;;;;16.48;9.60;;;;;;;12.52;100.00;102442.97;5030479;28;20135;-63
2023/05/31 05:18:15;;;;;;;13.88;9.18;;;;;;;12.60;100.00;102439.84;5030182;28;20045;-64
2023/05/31 05:20:43;;;;;;;13.15;8.98;;;;;;;12.64;100.00;102441.03;5030322;28;20049;-64
2023/05/31 05:23:12;;;;;;;18.23;9.75;;;;;;;12.63;100.00;102439.38;4980853;28;20083;-65
2023/05/31 05:25:40;;;;;;;16.25;9.38;;;;;;;12.61;100.00;102446.19;5014104;28;20069;-64
2023/05/31 05:28:08;;;;;;;17.65;10.13;;;;;;;12.62;100.00;102445.91;5029590;28;20383;-64
2023/05/31 05:30:35;;;;;;;15.27;10.00;;;;;;;12.64;100.00;102457.44;5030007;28;20064;-64
2023/05/31 05:33:04;;;;;;;16.55;9.57;;;;;;;12.64;100.00;102456.63;5038419;28;20635;-65
2023/05/31 05:35:36;;;;;;;19.40;10.35;;;;;;;12.68;100.00;102460.53;5030122;28;20156;-65
2023/05/31 05:38:04;;;;;;;17.08;9.50;;;;;;;12.67;100.00;102451.50;5029670;28;20045;-65
2023/05/31 05:40:31;;;;;;;15.88;10.07;;;;;;;12.72;100.00;102458.97;5028848;28;20502;-62
2023/05/31 05:42:59;;;;;;;14.50;9.32;;;;;;;12.77;100.00;102451.72;5018058;28;20088;-64
2023/05/31 05:45:33;;;;;;;16.65;9.90;;;;;;;12.79;100.00;102455.03;5026294;28;20073;-65
2023/05/31 05:48:01;;;;;;;15.52;9.60;;;;;;;12.76;100.00;102452.78;5042173;28;20753;-65
2023/05/31 05:50:29;;;;;;;14.07;9.15;;;;;;;12.83;100.00;102455.38;5013265;28;20046;-65
2023/05/31 05:52:58;;;;;;;16.58;10.27;;;;;;;12.86;100.00;102446.66;5022490;28;20139;-66
2023/05/31 05:55:29;;;;;;;18.33;11.80;;;;;;;12.91;100.00;102454.97;5030030;28;20124;-64
2023/05/31 05:57:58;;;;;;;18.65;11.52;;;;;;;12.97;100.00;102459.50;5013211;28;20076;-63
2023/05/31 06:00:44;;;;;;;18.45;12.10;;;;;;;13.05;100.00;102455.53;4999192;28;20053;-64
2023/05/31 06:03:13;;;;;;;19.42;11.68;;;;;;;12.99;100.00;102464.72;5013496;28;20067;-63
2023/05/31 06:05:44;;;;;;;22.27;12.00;;;;;;;13.03;100.00;102465.88;5030668;28;20115;-65
2023/05/31 06:08:12;;;;;;;18.58;12.07;;;;;;;13.07;100.00;102467.06;5031288;28;20401;-61
2023/05/31 06:10:40;;;;;;;19.75;11.38;;;;;;;13.08;100.00;102462.41;5032703;28;20048;-62
2023/05/31 06:13:10;;;;;;;16.38;10.80;;;;;;;13.15;100.00;102446.66;5016156;28;20073;-64
2023/05/31 06:15:38;;;;;;;14.77;8.68;;;;;;;13.25;100.00;102457.81;5017359;28;20087;-64
2023/05/31 06:18:05;;;;;;;16.27;11.20;;;;;;;13.28;100.00;102454.63;5033401;28;20045;-62
2023/05/31 06:20:33;;;;;;;17.73;10.40;;;;;;;13.28;100.00;102456.53;5031499;28;20059;-64
2023/05/31 06:23:02;;;;;;;17.77;10.68;;;;;;;13.34;100.00;102458.28;5030461;28;20509;-62
2023/05/31 06:25:29;;;;;;;17.73;10.20;;;;;;;13.38;100.00;102451.25;5018511;28;20041;-62
2023/05/31 06:27:58;;;;;;;15.10;8.23;;;;;;;13.40;100.00;102460.03;5032834;28;20054;-62
2023/05/31 06:30:26;;;;;;;17.23;11.30;;;;;;;13.42;100.00;102452.38;5032155;28;20041;-64
2023/05/31 06:32:54;;;;;;;17.77;9.38;;;;;;;13.48;100.00;102459.63;5032839;28;20159;-62
2023/05/31 06:35:24;;;;;;;15.20;9.32;;;;;;;13.55;100.00;102462.22;5064800;28;20490;-62
2023/05/31 06:37:52;;;;;;;19.83;10.27;;;;;;;13.60;100.00;102454.91;5034089;28;20037;-66
2023/05/31 06:40:21;;;;;;;21.70;12.02;;;;;;;13.60;100.00;102465.03;4998994;28;20469;-63
2023/05/31 06:42:49;;;;;;;22.30;12.27;;;;;;;13.63;100.00;102464.53;5032202;28;20053;-66
2023/05/31 06:45:33;;;;;;;19.10;11.52;;;;;;;13.66;100.00;102457.72;5032711;28;20085;-63
2023/05/31 06:48:20;;;;;;;23.48;12.20;;;;;;;13.69;100.00;102462.72;5033547;28;20064;-65
2023/05/31 06:51:22;;;;;;;19.38;11.50;;;;;;;13.72;100.00;102462.22;5019430;28;20056;-62
2023/05/31 06:54:00;;;;;;;17.05;10.73;;;;;;;13.79;100.00;102457.41;5033609;28;20133;-61
2023/05/31 06:56:29;;;;;;;18.98;11.25;;;;;;;13.87;100.00;102458.88;5032515;28;20037;-62
2023/05/31 06:58:57;;;;;;;17.55;10.63;;;;;;;13.93;100.00;102458.72;5032260;28;20049;-63
2023/05/31 07:01:25;;;;;;;16.80;10.80;;;;;;;13.97;100.00;102459.03;5009622;28;20054;-63
2023/05/31 07:03:53;;;;;;;16.23;9.35;;;;;;;14.06;100.00;102460.28;5015726;28;20052;-62
2023/05/31 07:06:21;;;;;;;18.48;10.82;;;;;;;14.11;100.00;102467.75;5032225;28;20069;-62
2023/05/31 07:08:51;;;;;;;18.15;9.15;;;;;;;14.14;100.00;102465.34;5031674;28;20653;-64
2023/05/31 07:11:32;;;;;;;14.50;9.10;;;;;;;14.20;100.00;102463.50;5029525;28;20041;-62
2023/05/31 07:14:02;;;;;;;16.65;9.30;;;;;;;14.22;100.00;102472.31;5015736;28;20108;-61
2023/05/31 07:16:30;;;;;;;19.80;10.45;;;;;;;14.24;100.00;102467.41;5031853;28;20072;-62
2023/05/31 07:18:59;;;;;;;16.05;9.68;;;;;;;14.25;100.00;102471.81;5016384;28;20046;-62
2023/05/31 07:21:27;;;;;;;18.98;10.77;;;;;;;14.31;100.00;102459.84;5030151;28;20046;-62
2023/05/31 07:23:55;;;;;;;19.15;9.73;;;;;;;14.35;100.00;102460.97;5033210;28;20087;-62
2023/05/31 07:26:23;;;;;;;15.88;9.98;;;;;;;14.42;100.00;102456.13;5032372;28;20064;-62
2023/05/31 07:28:54;;;;;;;16.00;9.13;;;;;;;14.48;99.50;102449.63;5033537;28;20049;-64
2023/05/31 07:31:23;;;;;;;17.20;10.60;;;;;;;14.51;99.83;102447.47;5016396;28;20453;-63
2023/05/31 07:33:50;;;;;;;17.08;9.40;;;;;;;14.52;99.40;102449.13;5017759;28;20042;-63
2023/05/31 07:36:18;;;;;;;17.25;9.30;;;;;;;14.62;98.59;102443.78;5017288;28;20049;-64
2023/05/31 07:38:46;;;;;;;15.45;8.75;;;;;;;14.67;98.36;102441.09;5017459;28;20050;-63
2023/05/31 07:41:15;;;;;;;15.40;8.77;;;;;;;14.70;98.11;102435.13;5017151;28;20077;-63
2023/05/31 07:43:46;;;;;;;19.70;10.45;;;;;;;14.76;97.70;102434.09;5015458;28;20045;-63
2023/05/31 07:46:14;;;;;;;15.52;8.35;;;;;;;14.91;96.10;102431.53;5017809;28;20046;-63
2023/05/31 07:48:43;;;;;;;16.20;9.07;;;;;;;14.94;96.32;102429.38;5019407;28;20060;-63
2023/05/31 07:51:11;;;;;;;16.77;8.90;;;;;;;14.99;96.88;102432.97;5035168;28;20119;-64
2023/05/31 07:53:39;;;;;;;14.35;7.90;;;;;;;15.11;95.37;102427.34;5035840;28;20119;-63
2023/05/31 07:56:07;;;;;;;15.23;9.10;;;;;;;15.17;94.91;102426.28;5037037;28;20049;-66
2023/05/31 07:58:36;;;;;;;14.75;8.18;;;;;;;15.20;94.52;102430.44;5052460;28;20045;-63
2023/05/31 08:01:04;;;;;;;16.52;8.65;;;;;;;15.26;94.18;102432.97;5034536;28;20049;-63
2023/05/31 08:03:32;;;;;;;20.10;9.90;;;;;;;15.30;94.40;102436.88;5035198;28;20416;-64
2023/05/31 08:06:00;;;;;;;17.13;8.55;;;;;;;15.39;93.29;102433.63;5035630;28;20132;-62
2023/05/31 08:08:29;;;;;;;15.43;8.27;;;;;;;15.53;91.75;102434.84;5036678;28;20494;-64
2023/05/31 08:10:57;;;;;;;19.73;9.40;;;;;;;15.53;92.04;102430.19;5036536;28;20084;-64
2023/05/31 08:13:25;;;;;;;15.25;8.57;;;;;;;15.60;90.91;102432.72;5035288;28;20049;-63
2023/05/31 08:15:53;;;;;;;17.85;9.45;;;;;;;15.54;90.59;102431.03;5035435;28;20073;-64
2023/05/31 08:18:20;;;;;;;17.02;8.93;;;;;;;15.56;92.18;102426.09;5035403;28;20485;-65
2023/05/31 08:20:48;;;;;;;15.90;8.20;;;;;;;15.69;91.90;102427.56;5022064;28;20461;-62
2023/05/31 08:23:20;;;;;;;17.23;7.32;;;;;;;15.82;89.85;102421.63;5015762;28;20394;-61
2023/05/31 08:25:48;;;;;;;13.63;8.27;;;;;;;15.92;89.14;102418.97;5017258;28;20061;-65
2023/05/31 08:28:16;;;;;;;20.67;8.52;;;;;;;15.98;89.36;102419.84;5021922;28;20084;-62
2023/05/31 08:30:44;;;;;;;17.63;9.20;;;;;;;16.03;88.53;102422.59;5021365;28;20163;-64
2023/05/31 08:33:15;;;;;;;19.15;9.13;;;;;;;16.02;89.35;102422.88;5058541;28;20052;-63
2023/05/31 08:35:43;;;;;;;17.13;8.40;;;;;;;16.17;88.99;102421.03;5044671;28;20049;-63
2023/05/31 08:38:11;;;;;;;18.85;9.27;;;;;;;16.31;86.97;102424.16;5022399;28;20093;-64
2023/05/31 08:40:41;;;;;;;16.20;8.10;;;;;;;16.33;86.74;102419.22;5036170;28;20052;-63
2023/05/31 08:43:15;;;;;;;19.55;8.20;;;;;;;16.31;87.61;102413.16;5036114;28;20486;-64
2023/05/31 08:45:43;;;;;;;27.13;9.07;;;;;;;16.31;89.22;102413.16;5048440;28;20132;-63
2023/05/31 08:48:21;;;;;;;15.85;7.93;;;;;;;16.36;89.56;102417.84;5062405;28;20063;-63
2023/05/31 08:50:50;;;;;;;13.60;8.05;;;;;;;16.41;90.04;102420.63;5058680;28;20076;-62
2023/05/31 08:53:23;;;;;;;13.50;7.97;;;;;;;16.44;88.65;102402.75;5055685;28;20077;-63
2023/05/31 08:55:54;;;;;;;15.57;7.32;;;;;;;16.44;89.36;102409.06;5058107;28;20045;-61
2023/05/31 08:58:23;;;;;;;14.65;8.43;;;;;;;16.45;87.67;102413.50;5042704;28;20127;-62
2023/05/31 09:00:50;;;;;;;15.52;8.32;;;;;;;16.65;87.69;102412.72;5021253;28;20042;-64
2023/05/31 09:03:19;;;;;;;19.50;8.52;;;;;;;16.90;86.19;102406.50;5014525;28;20096;-61
2023/05/31 09:05:46;;;;;;;15.30;7.90;;;;;;;16.94;85.47;102396.59;5016308;28;20133;-62
2023/05/31 09:08:14;;;;;;;12.82;6.70;;;;;;;16.95;83.92;102398.22;5016830;28;20054;-61
2023/05/31 09:10:42;;;;;;;15.60;8.30;;;;;;;17.03;84.42;102400.47;5033699;28;20119;-62
2023/05/31 09:13:10;;;;;;;14.75;7.20;;;;;;;17.04;84.02;102391.09;5016852;28;20053;-61
2023/05/31 09:15:38;;;;;;;14.55;7.35;;;;;;;17.11;83.53;102398.28;5018125;28;20045;-61
2023/05/31 09:18:19;;;;;;;16.17;8.38;;;;;;;17.15;84.58;102399.38;5034474;28;20053;-63
2023/05/31 09:20:48;;;;;;;15.02;7.95;;;;;;;17.30;82.97;102393.88;5035157;28;20050;-60
2023/05/31 09:23:18;;;;;;;11.82;6.20;;;;;;;17.19;81.52;102392.22;5039083;28;20057;-61
2023/05/31 09:25:49;;;;;;;15.20;8.55;;;;;;;17.25;82.34;102391.94;5056440;28;20069;-64
2023/05/31 09:28:19;;;;;;;16.40;7.70;;;;;;;17.34;81.80;102383.97;5014247;28;20454;-61
2023/05/31 09:31:03;;;;;;;14.10;7.65;;;;;;;17.44;81.92;102380.38;5020618;28;20056;-66
2023/05/31 09:33:44;;;;;;;12.82;7.50;;;;;;;17.39;80.93;102377.59;5031825;28;20056;-62
2023/05/31 09:36:13;;;;;;;14.70;6.80;;;;;;;17.48;78.94;102378.72;5036122;28;20045;-64
2023/05/31 09:38:44;;;;;;;16.23;6.88;;;;;;;17.51;78.49;102366.31;5035970;28;20553;-61
2023/05/31 09:41:17;;;;;;;17.98;7.72;;;;;;;17.72;74.78;102378.97;5034530;28;20049;-62
2023/05/31 09:43:46;;;;;;;14.82;7.40;;;;;;;17.84;75.47;102370.44;5031955;28;20059;-64
2023/05/31 09:46:16;;;;;;;19.63;7.78;;;;;;;17.89;76.47;102373.16;5014321;28;20492;-59
2023/05/31 09:48:45;;;;;;;16.75;7.25;;;;;;;18.01;74.24;102372.84;5015103;28;20088;-61
2023/05/31 09:51:13;;;;;;;18.73;8.27;;;;;;;18.02;74.26;102371.78;5030093;28;20049;-61
2023/05/31 09:53:45;;;;;;;15.48;7.78;;;;;;;18.10;74.10;102374.75;5034842;28;20046;-62
2023/05/31 09:56:21;;;;;;;15.55;7.85;;;;;;;18.05;75.23;102363.75;5031410;28;20046;-63
2023/05/31 09:58:50;;;;;;;16.40;7.90;;;;;;;18.09;75.92;102366.78;5033408;28;20049;-62
2023/05/31 10:01:21;;;;;;;13.90;6.70;;;;;;;18.18;72.80;102353.22;5033789;28;20080;-62
2023/05/31 10:03:50;;;;;;;9.52;5.68;;;;;;;18.20;70.79;102356.53;5034548;28;20049;-62
2023/05/31 10:06:19;;;;;;;12.32;5.45;;;;;;;18.34;71.56;102351.22;5049874;28;20041;-62
2023/05/31 10:08:47;;;;;;;12.35;4.95;;;;;;;18.37;72.33;102350.66;5032268;28;20485;-62
2023/05/31 10:11:17;;;;;;;14.00;5.70;;;;;;;18.44;67.01;102356.69;5032902;28;20049;-63
2023/05/31 10:13:47;;;;;;;10.50;4.78;;;;;;;18.40;65.65;102350.06;5016234;28;20049;-62
2023/05/31 10:16:16;;;;;;;13.18;4.93;;;;;;;18.33;67.20;102355.06;5034257;28;20111;-62
2023/05/31 10:18:46;;;;;;;15.52;5.72;;;;;;;18.44;67.82;102351.16;5032803;28;20132;-61
2023/05/31 10:21:26;;;;;;;10.45;4.85;;;;;;;18.55;70.00;102350.03;5033054;28;20049;-63
2023/05/31 10:24:08;;;;;;;10.63;4.80;;;;;;;18.58;65.92;102349.44;5013547;28;20127;-61
2023/05/31 10:26:54;;;;;;;12.10;5.18;;;;;;;18.68;65.34;102341.09;5018010;28;20124;-62
2023/05/31 10:29:27;;;;;;;15.60;5.95;;;;;;;18.90;64.49;102345.41;5049083;28;20053;-62
2023/05/31 10:31:59;;;;;;;17.02;5.22;;;;;;;19.01;63.30;102348.91;5033039;28;20049;-61
2023/05/31 10:34:28;;;;;;;16.35;5.85;;;;;;;19.08;62.45;102333.66;5028362;28;20045;-62
2023/05/31 10:36:56;;;;;;;13.80;5.80;;;;;;;19.09;61.77;102340.00;5013720;28;20057;-63
2023/05/31 10:39:35;;;;;;;17.42;5.97;;;;;;;19.13;62.02;102325.31;5015251;28;20053;-62
2023/05/31 10:42:27;;;;;;;15.45;5.15;;;;;;;19.22;62.48;102325.53;5015842;28;20393;-62
2023/05/31 10:45:14;;;;;;;13.65;5.60;;;;;;;19.12;63.55;102323.69;5032281;28;20061;-68
2023/05/31 10:47:57;;;;;;;11.02;5.28;;;;;;;19.24;62.78;102325.22;5018901;28;20398;-64
2023/05/31 10:50:28;;;;;;;11.93;5.07;;;;;;;19.37;63.01;102319.03;5013035;28;20500;-61
2023/05/31 10:53:10;;;;;;;14.65;5.40;;;;;;;19.49;60.67;102310.34;5014198;28;20054;-61
2023/05/31 10:55:43;;;;;;;14.48;4.40;;;;;;;19.58;59.15;102314.13;4997783;28;20050;-62
2023/05/31 10:58:39;;;;;;;13.15;4.25;;;;;;;19.56;59.83;102305.31;5014890;28;20054;-62
2023/05/31 11:01:08;;;;;;;12.10;4.38;;;;;;;19.55;58.54;102311.94;5013914;28;20505;-63
2023/05/31 11:03:43;;;;;;;13.48;4.88;;;;;;;19.57;56.66;102312.47;5016810;28;20046;-63
2023/05/31 11:06:17;;;;;;;13.18;4.50;;;;;;;19.58;58.58;102308.59;5031716;28;20045;-64
2023/05/31 11:09:09;;;;;;;8.50;3.85;;;;;;;19.66;56.91;102301.59;5033525;28;20055;-62
2023/05/31 11:11:39;;;;;;;9.88;4.40;;;;;;;19.63;58.93;102303.03;5031737;28;20044;-63
2023/05/31 11:14:10;;;;;;;14.30;5.05;;;;;;;19.66;60.57;102310.72;5033732;28;20107;-63
2023/05/31 11:17:03;;;;;;;11.30;4.40;;;;;;;19.77;59.90;102295.69;5033628;28;20069;-63
2023/05/31 11:19:35;;;;;;;11.57;4.30;;;;;;;19.73;59.45;102291.88;5026555;28;20422;-63
2023/05/31 11:22:12;;;;;;;17.23;4.82;;;;;;;19.83;57.26;102303.94;5033123;28;20043;-62
2023/05/31 11:24:43;;;;;;;13.52;4.53;;;;;;;19.93;57.60;102290.78;5021502;28;20050;-63
2023/05/31 11:27:14;;;;;;;10.65;4.60;;;;;;;19.87;58.19;102286.47;5012542;28;20073;-63
2023/05/31 11:29:56;;;;;;;11.30;4.90;;;;;;;20.02;57.53;102295.69;5013515;28;20042;-63
2023/05/31 11:32:33;;;;;;;13.65;4.63;;;;;;;20.06;56.82;102291.19;5012961;28;20054;-63